sensor_id;sensor_type;location;lat;lon;timestamp;pressure;altitude;pressure_sealevel;temperature;humidity
77019;BME280;66044;53.142;17.962;2023-09-07T00:01:12;102070.54;;;17.00;71.35
77019;BME280;66044;53.142;17.962;2023-09-07T00:03:39;102071.81;;;16.98;71.34
77019;BME280;66044;53.142;17.962;2023-09-07T00:06:07;102073.50;;;16.98;71.41
77019;BME280;66044;53.142;17.962;2023-09-07T00:08:34;102072.29;;;16.96;71.56
77019;BME280;66044;53.142;17.962;2023-09-07T00:11:05;102072.55;;;16.95;71.49
77019;BME280;66044;53.142;17.962;2023-09-07T00:13:32;102072.18;;;16.94;71.66
77019;BME280;66044;53.142;17.962;2023-09-07T00:16:00;102071.58;;;16.92;71.46
77019;BME280;66044;53.142;17.962;2023-09-07T00:18:27;102069.38;;;16.91;71.47
77019;BME280;66044;53.142;17.962;2023-09-07T00:20:53;102073.00;;;16.90;71.69
77019;BME280;66044;53.142;17.962;2023-09-07T00:23:20;102071.86;;;16.89;71.79
77019;BME280;66044;53.142;17.962;2023-09-07T00:25:47;102071.83;;;16.88;71.69
77019;BME280;66044;53.142;17.962;2023-09-07T00:28:14;102076.84;;;16.87;72.03
77019;BME280;66044;53.142;17.962;2023-09-07T00:30:40;102078.19;;;16.86;72.08
77019;BME280;66044;53.142;17.962;2023-09-07T00:33:08;102077.68;;;16.85;72.10
77019;BME280;66044;53.142;17.962;2023-09-07T00:35:35;102075.95;;;16.84;72.10
77019;BME280;66044;53.142;17.962;2023-09-07T00:38:01;102075.77;;;16.83;72.34
77019;BME280;66044;53.142;17.962;2023-09-07T00:40:28;102073.70;;;16.82;72.26
77019;BME280;66044;53.142;17.962;2023-09-07T00:42:55;102075.54;;;16.79;72.15
77019;BME280;66044;53.142;17.962;2023-09-07T00:45:21;102073.35;;;16.77;72.23
77019;BME280;66044;53.142;17.962;2023-09-07T00:47:48;102071.02;;;16.76;72.30
77019;BME280;66044;53.142;17.962;2023-09-07T00:50:15;102069.56;;;16.74;72.40
77019;BME280;66044;53.142;17.962;2023-09-07T00:52:43;102072.16;;;16.73;72.54
77019;BME280;66044;53.142;17.962;2023-09-07T00:55:10;102072.73;;;16.72;72.60
77019;BME280;66044;53.142;17.962;2023-09-07T00:57:38;102068.10;;;16.71;72.84
77019;BME280;66044;53.142;17.962;2023-09-07T01:00:07;102066.64;;;16.69;72.76
77019;BME280;66044;53.142;17.962;2023-09-07T01:02:34;102070.23;;;16.67;72.84
77019;BME280;66044;53.142;17.962;2023-09-07T01:05:01;102070.56;;;16.66;73.04
77019;BME280;66044;53.142;17.962;2023-09-07T01:07:47;102071.55;;;16.63;73.04
77019;BME280;66044;53.142;17.962;2023-09-07T01:10:18;102070.43;;;16.60;73.01
77019;BME280;66044;53.142;17.962;2023-09-07T01:12:47;102070.05;;;16.57;73.19
77019;BME280;66044;53.142;17.962;2023-09-07T01:15:13;102068.79;;;16.54;73.09
77019;BME280;66044;53.142;17.962;2023-09-07T01:17:40;102075.41;;;16.53;73.20
77019;BME280;66044;53.142;17.962;2023-09-07T01:20:09;102077.89;;;16.51;73.24
77019;BME280;66044;53.142;17.962;2023-09-07T01:22:37;102074.61;;;16.49;73.44
77019;BME280;66044;53.142;17.962;2023-09-07T01:25:06;102075.95;;;16.47;73.54
77019;BME280;66044;53.142;17.962;2023-09-07T01:27:34;102077.02;;;16.44;73.52
77019;BME280;66044;53.142;17.962;2023-09-07T01:30:01;102074.98;;;16.42;73.47
77019;BME280;66044;53.142;17.962;2023-09-07T01:32:28;102070.91;;;16.41;73.75
77019;BME280;66044;53.142;17.962;2023-09-07T01:34:57;102070.59;;;16.38;73.72
77019;BME280;66044;53.142;17.962;2023-09-07T01:37:24;102071.52;;;16.36;73.80
77019;BME280;66044;53.142;17.962;2023-09-07T01:39:50;102074.11;;;16.33;73.81
77019;BME280;66044;53.142;17.962;2023-09-07T01:42:16;102077.13;;;16.30;74.05
77019;BME280;66044;53.142;17.962;2023-09-07T01:44:43;102075.47;;;16.28;74.29
77019;BME280;66044;53.142;17.962;2023-09-07T01:47:09;102078.74;;;16.24;74.39
77019;BME280;66044;53.142;17.962;2023-09-07T01:49:36;102076.35;;;16.22;74.42
77019;BME280;66044;53.142;17.962;2023-09-07T01:52:02;102077.48;;;16.19;74.60
77019;BME280;66044;53.142;17.962;2023-09-07T01:54:29;102073.39;;;16.16;74.65
77019;BME280;66044;53.142;17.962;2023-09-07T01:56:55;102074.02;;;16.15;74.76
77019;BME280;66044;53.142;17.962;2023-09-07T01:59:22;102073.81;;;16.11;74.74
77019;BME280;66044;53.142;17.962;2023-09-07T02:01:49;102070.39;;;16.09;74.72
77019;BME280;66044;53.142;17.962;2023-09-07T02:04:15;102073.61;;;16.07;74.81
77019;BME280;66044;53.142;17.962;2023-09-07T02:06:41;102069.63;;;16.05;75.00
77019;BME280;66044;53.142;17.962;2023-09-07T02:09:08;102069.67;;;16.02;75.07
77019;BME280;66044;53.142;17.962;2023-09-07T02:11:34;102070.58;;;16.00;75.12
77019;BME280;66044;53.142;17.962;2023-09-07T02:14:01;102071.02;;;15.98;75.41
77019;BME280;66044;53.142;17.962;2023-09-07T02:16:28;102067.34;;;15.96;75.52
77019;BME280;66044;53.142;17.962;2023-09-07T02:19:03;102070.08;;;15.95;75.75
77019;BME280;66044;53.142;17.962;2023-09-07T02:21:30;102069.48;;;15.94;75.96
77019;BME280;66044;53.142;17.962;2023-09-07T02:23:57;102069.54;;;15.93;75.88
77019;BME280;66044;53.142;17.962;2023-09-07T02:26:24;102068.58;;;15.92;76.11
77019;BME280;66044;53.142;17.962;2023-09-07T02:28:50;102068.84;;;15.91;76.04
77019;BME280;66044;53.142;17.962;2023-09-07T02:31:16;102068.77;;;15.91;76.03
77019;BME280;66044;53.142;17.962;2023-09-07T02:33:43;102070.44;;;15.92;76.18
77019;BME280;66044;53.142;17.962;2023-09-07T02:36:10;102073.83;;;15.94;76.17
77019;BME280;66044;53.142;17.962;2023-09-07T02:38:36;102073.59;;;15.96;76.13
77019;BME280;66044;53.142;17.962;2023-09-07T02:41:02;102073.48;;;15.97;76.23
77019;BME280;66044;53.142;17.962;2023-09-07T02:43:29;102077.31;;;15.98;76.48
77019;BME280;66044;53.142;17.962;2023-09-07T02:45:56;102076.14;;;15.99;76.34
77019;BME280;66044;53.142;17.962;2023-09-07T02:48:22;102077.43;;;16.01;76.50
77019;BME280;66044;53.142;17.962;2023-09-07T02:50:49;102078.50;;;16.02;76.39
77019;BME280;66044;53.142;17.962;2023-09-07T02:53:16;102080.98;;;16.04;76.39
77019;BME280;66044;53.142;17.962;2023-09-07T02:55:43;102079.73;;;16.06;76.34
77019;BME280;66044;53.142;17.962;2023-09-07T02:58:09;102082.05;;;16.08;76.54
77019;BME280;66044;53.142;17.962;2023-09-07T03:00:41;102079.54;;;16.09;76.62
77019;BME280;66044;53.142;17.962;2023-09-07T03:03:09;102078.80;;;16.10;76.66
77019;BME280;66044;53.142;17.962;2023-09-07T03:05:35;102079.40;;;16.11;76.66
77019;BME280;66044;53.142;17.962;2023-09-07T03:08:02;102078.44;;;16.12;76.80
77019;BME280;66044;53.142;17.962;2023-09-07T03:10:29;102084.94;;;16.14;76.77
77019;BME280;66044;53.142;17.962;2023-09-07T03:12:56;102079.50;;;16.16;76.81
77019;BME280;66044;53.142;17.962;2023-09-07T03:15:22;102080.70;;;16.17;76.64
77019;BME280;66044;53.142;17.962;2023-09-07T03:17:49;102080.09;;;16.17;76.70
77019;BME280;66044;53.142;17.962;2023-09-07T03:20:15;102079.84;;;16.17;76.88
77019;BME280;66044;53.142;17.962;2023-09-07T03:22:44;102081.52;;;16.16;76.82
77019;BME280;66044;53.142;17.962;2023-09-07T03:25:11;102074.80;;;16.14;76.98
77019;BME280;66044;53.142;17.962;2023-09-07T03:27:38;102079.75;;;16.12;76.78
77019;BME280;66044;53.142;17.962;2023-09-07T03:30:06;102083.42;;;16.11;77.04
77019;BME280;66044;53.142;17.962;2023-09-07T03:32:32;102080.08;;;16.09;77.13
77019;BME280;66044;53.142;17.962;2023-09-07T03:35:00;102084.05;;;16.07;77.23
77019;BME280;66044;53.142;17.962;2023-09-07T03:37:27;102085.88;;;16.07;77.31
77019;BME280;66044;53.142;17.962;2023-09-07T03:39:55;102086.90;;;16.05;77.36
77019;BME280;66044;53.142;17.962;2023-09-07T03:42:22;102086.43;;;16.03;77.51
77019;BME280;66044;53.142;17.962;2023-09-07T03:44:49;102087.29;;;16.01;77.57
77019;BME280;66044;53.142;17.962;2023-09-07T03:47:16;102086.88;;;15.99;77.54
77019;BME280;66044;53.142;17.962;2023-09-07T03:49:42;102091.54;;;15.97;78.09
77019;BME280;66044;53.142;17.962;2023-09-07T03:52:09;102094.89;;;15.98;78.05
77019;BME280;66044;53.142;17.962;2023-09-07T03:54:35;102090.30;;;15.97;77.82
77019;BME280;66044;53.142;17.962;2023-09-07T03:57:02;102091.73;;;15.96;78.25
77019;BME280;66044;53.142;17.962;2023-09-07T03:59:29;102093.65;;;15.96;78.20
77019;BME280;66044;53.142;17.962;2023-09-07T04:01:56;102092.81;;;15.96;78.35
77019;BME280;66044;53.142;17.962;2023-09-07T04:04:22;102093.61;;;15.97;78.43
77019;BME280;66044;53.142;17.962;2023-09-07T04:06:49;102090.67;;;15.97;78.34
77019;BME280;66044;53.142;17.962;2023-09-07T04:09:15;102096.16;;;15.95;78.24
77019;BME280;66044;53.142;17.962;2023-09-07T04:11:42;102098.48;;;15.93;78.52
77019;BME280;66044;53.142;17.962;2023-09-07T04:14:08;102098.71;;;15.93;78.72
77019;BME280;66044;53.142;17.962;2023-09-07T04:16:35;102098.90;;;15.93;78.82
77019;BME280;66044;53.142;17.962;2023-09-07T04:19:01;102099.85;;;15.94;79.10
77019;BME280;66044;53.142;17.962;2023-09-07T04:21:28;102098.77;;;15.94;78.80
77019;BME280;66044;53.142;17.962;2023-09-07T04:23:54;102105.42;;;15.94;78.89
77019;BME280;66044;53.142;17.962;2023-09-07T04:26:20;102104.58;;;15.94;79.11
77019;BME280;66044;53.142;17.962;2023-09-07T04:28:47;102108.14;;;15.94;78.96
77019;BME280;66044;53.142;17.962;2023-09-07T04:31:13;102111.39;;;15.94;79.29
77019;BME280;66044;53.142;17.962;2023-09-07T04:33:40;102110.98;;;15.94;79.00
77019;BME280;66044;53.142;17.962;2023-09-07T04:36:11;102110.13;;;15.93;79.12
77019;BME280;66044;53.142;17.962;2023-09-07T04:38:38;102109.23;;;15.94;79.18
77019;BME280;66044;53.142;17.962;2023-09-07T04:41:08;102116.91;;;15.94;79.08
77019;BME280;66044;53.142;17.962;2023-09-07T04:43:36;102116.65;;;15.94;79.19
77019;BME280;66044;53.142;17.962;2023-09-07T04:46:03;102116.44;;;15.92;79.22
77019;BME280;66044;53.142;17.962;2023-09-07T04:48:29;102121.07;;;15.90;79.48
77019;BME280;66044;53.142;17.962;2023-09-07T04:51:06;102121.61;;;15.88;79.37
77019;BME280;66044;53.142;17.962;2023-09-07T04:53:33;102125.79;;;15.88;79.57
77019;BME280;66044;53.142;17.962;2023-09-07T04:56:02;102123.62;;;15.88;79.74
77019;BME280;66044;53.142;17.962;2023-09-07T04:58:28;102128.91;;;15.91;79.82
77019;BME280;66044;53.142;17.962;2023-09-07T05:01:10;102128.52;;;15.92;80.04
77019;BME280;66044;53.142;17.962;2023-09-07T05:03:37;102133.66;;;15.95;79.68
77019;BME280;66044;53.142;17.962;2023-09-07T05:06:06;102133.56;;;15.95;79.87
77019;BME280;66044;53.142;17.962;2023-09-07T05:08:32;102136.98;;;15.95;80.10
77019;BME280;66044;53.142;17.962;2023-09-07T05:11:03;102133.52;;;15.96;79.94
77019;BME280;66044;53.142;17.962;2023-09-07T05:13:30;102133.47;;;15.98;79.86
77019;BME280;66044;53.142;17.962;2023-09-07T05:15:59;102134.19;;;16.00;79.86
77019;BME280;66044;53.142;17.962;2023-09-07T05:18:27;102131.40;;;16.03;80.06
77019;BME280;66044;53.142;17.962;2023-09-07T05:20:53;102134.99;;;16.07;79.90
77019;BME280;66044;53.142;17.962;2023-09-07T05:23:21;102134.66;;;16.08;79.81
77019;BME280;66044;53.142;17.962;2023-09-07T05:25:49;102138.79;;;16.13;79.97
77019;BME280;66044;53.142;17.962;2023-09-07T05:28:22;102135.92;;;16.17;80.09
77019;BME280;66044;53.142;17.962;2023-09-07T05:30:49;102135.20;;;16.22;80.19
77019;BME280;66044;53.142;17.962;2023-09-07T05:33:17;102136.98;;;16.28;79.93
77019;BME280;66044;53.142;17.962;2023-09-07T05:35:45;102140.02;;;16.32;80.00
77019;BME280;66044;53.142;17.962;2023-09-07T05:38:14;102142.63;;;16.39;80.00
77019;BME280;66044;53.142;17.962;2023-09-07T05:40:42;102145.20;;;16.46;79.91
77019;BME280;66044;53.142;17.962;2023-09-07T05:43:10;102140.80;;;16.50;79.62
77019;BME280;66044;53.142;17.962;2023-09-07T05:45:39;102142.84;;;16.55;79.66
77019;BME280;66044;53.142;17.962;2023-09-07T05:48:06;102148.77;;;16.61;79.49
77019;BME280;66044;53.142;17.962;2023-09-07T05:50:37;102151.38;;;16.67;79.42
77019;BME280;66044;53.142;17.962;2023-09-07T05:53:04;102151.36;;;16.73;79.14
77019;BME280;66044;53.142;17.962;2023-09-07T05:55:31;102155.17;;;16.79;79.18
77019;BME280;66044;53.142;17.962;2023-09-07T05:57:59;102157.65;;;16.85;79.21
77019;BME280;66044;53.142;17.962;2023-09-07T06:00:25;102155.55;;;16.91;79.26
77019;BME280;66044;53.142;17.962;2023-09-07T06:02:52;102158.64;;;16.97;79.13
77019;BME280;66044;53.142;17.962;2023-09-07T06:05:18;102160.05;;;17.02;79.00
77019;BME280;66044;53.142;17.962;2023-09-07T06:07:45;102166.41;;;17.06;78.72
77019;BME280;66044;53.142;17.962;2023-09-07T06:10:12;102167.49;;;17.04;78.58
77019;BME280;66044;53.142;17.962;2023-09-07T06:12:38;102170.86;;;17.01;78.44
77019;BME280;66044;53.142;17.962;2023-09-07T06:15:06;102172.89;;;16.99;78.58
77019;BME280;66044;53.142;17.962;2023-09-07T06:17:32;102171.99;;;16.97;78.61
77019;BME280;66044;53.142;17.962;2023-09-07T06:19:59;102174.19;;;16.94;78.63
77019;BME280;66044;53.142;17.962;2023-09-07T06:22:25;102171.25;;;16.92;78.88
77019;BME280;66044;53.142;17.962;2023-09-07T06:24:52;102176.06;;;16.94;78.77
77019;BME280;66044;53.142;17.962;2023-09-07T06:27:18;102179.39;;;16.93;78.82
77019;BME280;66044;53.142;17.962;2023-09-07T06:29:45;102181.92;;;16.92;78.98
77019;BME280;66044;53.142;17.962;2023-09-07T06:32:11;102181.69;;;16.94;79.00
77019;BME280;66044;53.142;17.962;2023-09-07T06:34:39;102181.49;;;16.96;79.08
77019;BME280;66044;53.142;17.962;2023-09-07T06:37:06;102184.80;;;17.04;78.91
77019;BME280;66044;53.142;17.962;2023-09-07T06:39:32;102186.89;;;17.17;78.95
77019;BME280;66044;53.142;17.962;2023-09-07T06:42:00;102188.66;;;17.31;78.95
77019;BME280;66044;53.142;17.962;2023-09-07T06:44:26;102188.36;;;17.45;78.73
77019;BME280;66044;53.142;17.962;2023-09-07T06:46:53;102190.31;;;17.58;78.44
77019;BME280;66044;53.142;17.962;2023-09-07T06:49:19;102199.44;;;17.72;78.17
77019;BME280;66044;53.142;17.962;2023-09-07T06:51:46;102202.94;;;17.79;77.78
77019;BME280;66044;53.142;17.962;2023-09-07T06:54:13;102201.84;;;17.81;77.66
77019;BME280;66044;53.142;17.962;2023-09-07T06:56:39;102204.00;;;17.78;77.55
77019;BME280;66044;53.142;17.962;2023-09-07T06:59:06;102204.07;;;17.78;77.45
77019;BME280;66044;53.142;17.962;2023-09-07T07:01:32;102205.41;;;17.79;77.36
77019;BME280;66044;53.142;17.962;2023-09-07T07:03:59;102210.71;;;17.82;77.16
77019;BME280;66044;53.142;17.962;2023-09-07T07:06:26;102210.90;;;17.85;77.13
77019;BME280;66044;53.142;17.962;2023-09-07T07:08:52;102211.82;;;17.94;77.01
77019;BME280;66044;53.142;17.962;2023-09-07T07:11:19;102203.71;;;18.00;76.88
77019;BME280;66044;53.142;17.962;2023-09-07T07:13:45;102211.88;;;18.12;76.85
77019;BME280;66044;53.142;17.962;2023-09-07T07:16:12;102209.61;;;18.36;76.57
77019;BME280;66044;53.142;17.962;2023-09-07T07:18:39;102209.33;;;18.63;75.99
77019;BME280;66044;53.142;17.962;2023-09-07T07:21:06;102212.83;;;19.34;75.12
77019;BME280;66044;53.142;17.962;2023-09-07T07:23:33;102211.77;;;19.97;73.90
77019;BME280;66044;53.142;17.962;2023-09-07T07:25:59;102216.09;;;20.18;72.93
77019;BME280;66044;53.142;17.962;2023-09-07T07:28:26;102218.30;;;20.22;72.01
77019;BME280;66044;53.142;17.962;2023-09-07T07:30:52;102222.00;;;20.27;71.95
77019;BME280;66044;53.142;17.962;2023-09-07T07:33:20;102225.43;;;20.35;71.31
77019;BME280;66044;53.142;17.962;2023-09-07T07:35:46;102230.39;;;20.43;70.81
77019;BME280;66044;53.142;17.962;2023-09-07T07:38:15;102231.54;;;20.53;70.44
77019;BME280;66044;53.142;17.962;2023-09-07T07:40:42;102238.89;;;20.54;70.19
77019;BME280;66044;53.142;17.962;2023-09-07T07:43:12;102239.53;;;20.55;69.72
77019;BME280;66044;53.142;17.962;2023-09-07T07:45:39;102239.06;;;20.58;69.62
77019;BME280;66044;53.142;17.962;2023-09-07T07:48:06;102246.17;;;20.62;69.33
77019;BME280;66044;53.142;17.962;2023-09-07T07:50:39;102244.50;;;20.77;69.07
77019;BME280;66044;53.142;17.962;2023-09-07T07:53:07;102245.50;;;20.80;68.80
77019;BME280;66044;53.142;17.962;2023-09-07T07:55:38;102245.71;;;20.82;68.62
77019;BME280;66044;53.142;17.962;2023-09-07T07:58:08;102244.84;;;20.82;68.36
77019;BME280;66044;53.142;17.962;2023-09-07T08:00:36;102246.16;;;20.92;68.01
77019;BME280;66044;53.142;17.962;2023-09-07T08:03:04;102247.64;;;21.45;67.14
77019;BME280;66044;53.142;17.962;2023-09-07T08:05:34;102248.14;;;22.58;65.54
77019;BME280;66044;53.142;17.962;2023-09-07T08:08:01;102250.85;;;23.56;64.27
77019;BME280;66044;53.142;17.962;2023-09-07T08:10:28;102252.95;;;24.19;62.34
77019;BME280;66044;53.142;17.962;2023-09-07T08:12:55;102252.66;;;26.15;59.80
77019;BME280;66044;53.142;17.962;2023-09-07T08:15:22;102259.00;;;27.74;56.97
77019;BME280;66044;53.142;17.962;2023-09-07T08:17:51;102257.27;;;29.43;53.59
77019;BME280;66044;53.142;17.962;2023-09-07T08:20:18;102263.98;;;31.34;50.87
77019;BME280;66044;53.142;17.962;2023-09-07T08:22:44;102271.33;;;32.95;47.60
77019;BME280;66044;53.142;17.962;2023-09-07T08:25:13;102270.18;;;34.26;44.74
77019;BME280;66044;53.142;17.962;2023-09-07T08:27:42;102279.13;;;35.14;42.25
77019;BME280;66044;53.142;17.962;2023-09-07T08:30:15;102277.59;;;35.28;40.50
77019;BME280;66044;53.142;17.962;2023-09-07T08:32:44;102273.33;;;34.64;39.30
77019;BME280;66044;53.142;17.962;2023-09-07T08:35:12;102272.46;;;33.60;39.79
77019;BME280;66044;53.142;17.962;2023-09-07T08:37:40;102270.20;;;32.34;40.31
77019;BME280;66044;53.142;17.962;2023-09-07T08:40:07;102263.73;;;31.40;41.19
77019;BME280;66044;53.142;17.962;2023-09-07T08:42:38;102262.55;;;30.65;42.22
77019;BME280;66044;53.142;17.962;2023-09-07T08:45:08;102256.20;;;29.83;42.87
77019;BME280;66044;53.142;17.962;2023-09-07T08:47:36;102254.63;;;29.13;43.85
77019;BME280;66044;53.142;17.962;2023-09-07T08:50:07;102257.77;;;28.66;44.89
77019;BME280;66044;53.142;17.962;2023-09-07T08:52:34;102251.63;;;28.32;45.37
77019;BME280;66044;53.142;17.962;2023-09-07T08:55:02;102256.98;;;27.84;46.03
77019;BME280;66044;53.142;17.962;2023-09-07T08:57:32;102249.81;;;27.42;46.69
77019;BME280;66044;53.142;17.962;2023-09-07T08:59:59;102249.51;;;27.06;47.30
77019;BME280;66044;53.142;17.962;2023-09-07T09:02:26;102245.08;;;26.78;48.04
77019;BME280;66044;53.142;17.962;2023-09-07T09:04:52;102245.44;;;26.64;48.56
77019;BME280;66044;53.142;17.962;2023-09-07T09:07:19;102245.38;;;26.52;48.75
77019;BME280;66044;53.142;17.962;2023-09-07T09:09:47;102239.81;;;26.27;48.91
77019;BME280;66044;53.142;17.962;2023-09-07T09:12:13;102237.68;;;26.09;49.47
77019;BME280;66044;53.142;17.962;2023-09-07T09:14:44;102234.61;;;25.97;49.87
77019;BME280;66044;53.142;17.962;2023-09-07T09:17:15;102234.60;;;25.89;50.10
77019;BME280;66044;53.142;17.962;2023-09-07T09:19:41;102234.14;;;25.87;50.35
77019;BME280;66044;53.142;17.962;2023-09-07T09:22:09;102225.64;;;25.85;50.54
77019;BME280;66044;53.142;17.962;2023-09-07T09:24:36;102226.66;;;25.84;50.59
77019;BME280;66044;53.142;17.962;2023-09-07T09:27:04;102221.77;;;25.81;50.61
77019;BME280;66044;53.142;17.962;2023-09-07T09:29:34;102217.69;;;25.76;50.76
77019;BME280;66044;53.142;17.962;2023-09-07T09:32:03;102213.52;;;25.71;51.06
77019;BME280;66044;53.142;17.962;2023-09-07T09:34:35;102217.05;;;25.71;51.10
77019;BME280;66044;53.142;17.962;2023-09-07T09:37:03;102217.72;;;25.56;51.21
77019;BME280;66044;53.142;17.962;2023-09-07T09:39:30;102218.08;;;25.49;51.26
77019;BME280;66044;53.142;17.962;2023-09-07T09:41:56;102218.14;;;25.39;51.24
77019;BME280;66044;53.142;17.962;2023-09-07T09:44:23;102216.48;;;25.31;51.27
77019;BME280;66044;53.142;17.962;2023-09-07T09:46:53;102215.19;;;25.23;51.36
77019;BME280;66044;53.142;17.962;2023-09-07T09:49:21;102216.14;;;25.25;51.62
77019;BME280;66044;53.142;17.962;2023-09-07T09:51:49;102216.29;;;25.27;51.64
77019;BME280;66044;53.142;17.962;2023-09-07T09:54:17;102215.42;;;25.23;51.53
77019;BME280;66044;53.142;17.962;2023-09-07T09:56:45;102208.96;;;25.17;51.77
77019;BME280;66044;53.142;17.962;2023-09-07T09:59:13;102207.48;;;25.24;52.13
77019;BME280;66044;53.142;17.962;2023-09-07T10:01:45;102209.16;;;25.34;52.00
77019;BME280;66044;53.142;17.962;2023-09-07T10:04:14;102205.70;;;25.31;51.97
77019;BME280;66044;53.142;17.962;2023-09-07T10:06:54;102202.32;;;25.30;51.92
77019;BME280;66044;53.142;17.962;2023-09-07T10:09:21;102204.05;;;25.30;52.01
77019;BME280;66044;53.142;17.962;2023-09-07T10:11:52;102201.63;;;25.33;52.03
77019;BME280;66044;53.142;17.962;2023-09-07T10:14:20;102205.89;;;25.42;52.03
77019;BME280;66044;53.142;17.962;2023-09-07T10:16:49;102204.31;;;25.42;51.68
77019;BME280;66044;53.142;17.962;2023-09-07T10:19:19;102204.30;;;25.43;51.64
77019;BME280;66044;53.142;17.962;2023-09-07T10:21:47;102203.23;;;25.49;51.52
77019;BME280;66044;53.142;17.962;2023-09-07T10:24:31;102208.65;;;25.48;51.30
77019;BME280;66044;53.142;17.962;2023-09-07T10:27:04;102203.84;;;25.50;51.16
77019;BME280;66044;53.142;17.962;2023-09-07T10:29:52;102200.80;;;25.52;51.11
77019;BME280;66044;53.142;17.962;2023-09-07T10:32:19;102200.23;;;25.56;51.05
77019;BME280;66044;53.142;17.962;2023-09-07T10:34:45;102196.53;;;25.57;50.85
77019;BME280;66044;53.142;17.962;2023-09-07T10:37:13;102195.34;;;25.60;50.80
77019;BME280;66044;53.142;17.962;2023-09-07T10:39:41;102194.70;;;25.65;50.85
77019;BME280;66044;53.142;17.962;2023-09-07T10:42:21;102193.92;;;25.69;50.70
77019;BME280;66044;53.142;17.962;2023-09-07T10:44:49;102189.98;;;25.74;50.63
77019;BME280;66044;53.142;17.962;2023-09-07T10:47:15;102187.33;;;25.78;50.53
77019;BME280;66044;53.142;17.962;2023-09-07T10:49:42;102192.20;;;25.82;50.56
77019;BME280;66044;53.142;17.962;2023-09-07T10:52:08;102195.74;;;25.86;50.40
77019;BME280;66044;53.142;17.962;2023-09-07T10:54:35;102193.23;;;25.91;50.58
77019;BME280;66044;53.142;17.962;2023-09-07T10:57:10;102190.93;;;25.96;50.48
77019;BME280;66044;53.142;17.962;2023-09-07T10:59:37;102188.82;;;25.94;50.18
77019;BME280;66044;53.142;17.962;2023-09-07T11:02:05;102189.61;;;25.92;50.17
77019;BME280;66044;53.142;17.962;2023-09-07T11:04:32;102185.20;;;25.90;49.97
77019;BME280;66044;53.142;17.962;2023-09-07T11:06:59;102183.55;;;25.90;50.12
77019;BME280;66044;53.142;17.962;2023-09-07T11:09:26;102188.11;;;25.93;50.03
77019;BME280;66044;53.142;17.962;2023-09-07T11:11:52;102184.27;;;25.93;49.77
77019;BME280;66044;53.142;17.962;2023-09-07T11:14:21;102181.11;;;25.93;49.64
77019;BME280;66044;53.142;17.962;2023-09-07T11:16:48;102176.79;;;25.94;49.66
77019;BME280;66044;53.142;17.962;2023-09-07T11:19:15;102178.73;;;25.97;49.72
77019;BME280;66044;53.142;17.962;2023-09-07T11:21:41;102179.29;;;26.02;49.53
77019;BME280;66044;53.142;17.962;2023-09-07T11:24:09;102173.06;;;26.03;49.10
77019;BME280;66044;53.142;17.962;2023-09-07T11:26:45;102171.10;;;26.04;49.21
77019;BME280;66044;53.142;17.962;2023-09-07T11:29:16;102165.67;;;26.07;48.91
77019;BME280;66044;53.142;17.962;2023-09-07T11:31:44;102166.52;;;26.10;49.19
77019;BME280;66044;53.142;17.962;2023-09-07T11:34:12;102159.28;;;26.11;49.11
77019;BME280;66044;53.142;17.962;2023-09-07T11:36:42;102161.25;;;26.10;49.04
77019;BME280;66044;53.142;17.962;2023-09-07T11:39:09;102153.30;;;26.09;48.90
77019;BME280;66044;53.142;17.962;2023-09-07T11:41:44;102155.98;;;26.12;48.78
77019;BME280;66044;53.142;17.962;2023-09-07T11:44:11;102157.88;;;26.15;48.81
77019;BME280;66044;53.142;17.962;2023-09-07T11:46:37;102155.58;;;26.16;48.50
77019;BME280;66044;53.142;17.962;2023-09-07T11:49:04;102157.39;;;26.19;48.41
77019;BME280;66044;53.142;17.962;2023-09-07T11:51:32;102156.84;;;26.17;47.62
77019;BME280;66044;53.142;17.962;2023-09-07T11:53:59;102156.44;;;26.16;47.36
77019;BME280;66044;53.142;17.962;2023-09-07T11:56:26;102155.50;;;26.22;47.66
77019;BME280;66044;53.142;17.962;2023-09-07T11:58:53;102154.09;;;26.27;46.95
77019;BME280;66044;53.142;17.962;2023-09-07T12:01:19;102156.06;;;26.28;46.80
77019;BME280;66044;53.142;17.962;2023-09-07T12:03:46;102149.91;;;26.31;46.52
77019;BME280;66044;53.142;17.962;2023-09-07T12:06:13;102153.29;;;26.37;46.91
77019;BME280;66044;53.142;17.962;2023-09-07T12:08:58;102152.32;;;26.43;47.33
77019;BME280;66044;53.142;17.962;2023-09-07T12:11:24;102155.36;;;26.52;47.53
77019;BME280;66044;53.142;17.962;2023-09-07T12:13:51;102154.77;;;26.60;47.21
77019;BME280;66044;53.142;17.962;2023-09-07T12:16:17;102154.06;;;26.64;46.37
77019;BME280;66044;53.142;17.962;2023-09-07T12:18:44;102148.23;;;26.67;45.61
77019;BME280;66044;53.142;17.962;2023-09-07T12:21:10;102150.42;;;26.67;45.17
77019;BME280;66044;53.142;17.962;2023-09-07T12:23:37;102149.29;;;26.74;45.35
77019;BME280;66044;53.142;17.962;2023-09-07T12:26:03;102144.35;;;26.89;45.37
77019;BME280;66044;53.142;17.962;2023-09-07T12:28:30;102140.98;;;27.02;44.88
77019;BME280;66044;53.142;17.962;2023-09-07T12:30:57;102145.50;;;27.10;44.83
77019;BME280;66044;53.142;17.962;2023-09-07T12:33:24;102139.08;;;27.18;44.60
77019;BME280;66044;53.142;17.962;2023-09-07T12:35:51;102133.81;;;27.26;44.67
77019;BME280;66044;53.142;17.962;2023-09-07T12:38:18;102135.02;;;27.35;44.53
77019;BME280;66044;53.142;17.962;2023-09-07T12:40:46;102129.85;;;27.42;44.76
77019;BME280;66044;53.142;17.962;2023-09-07T12:43:12;102130.20;;;27.45;44.44